sensor_id;sensor_type;location;lat;lon;timestamp;P1;durP1;ratioP1;P2;durP2;ratioP2
8407;SDS011;4241;48.452;9.216;2022-10-31T00:00:04;454.63;;;149.57;;
8407;SDS011;4241;48.452;9.216;2022-10-31T00:02:33;455.17;;;150.17;;
8407;SDS011;4241;48.452;9.216;2022-10-31T00:05:00;460.47;;;153.83;;
8407;SDS011;4241;48.452;9.216;2022-10-31T00:07:27;455.07;;;149.73;;
8407;SDS011;4241;48.452;9.216;2022-10-31T00:09:53;456.90;;;152.70;;
8407;SDS011;4241;48.452;9.216;2022-10-31T00:12:22;460.63;;;155.60;;
8407;SDS011;4241;48.452;9.216;2022-10-31T00:14:48;455.80;;;151.03;;
8407;SDS011;4241;48.452;9.216;2022-10-31T00:17:15;454.57;;;149.70;;
8407;SDS011;4241;48.452;9.216;2022-10-31T00:19:42;458.87;;;154.40;;
8407;SDS011;4241;48.452;9.216;2022-10-31T00:22:09;453.43;;;147.83;;
8407;SDS011;4241;48.452;9.216;2022-10-31T00:24:36;455.27;;;150.57;;
8407;SDS011;4241;48.452;9.216;2022-10-31T00:27:03;459.03;;;154.13;;
8407;SDS011;4241;48.452;9.216;2022-10-31T00:29:31;453.40;;;149.43;;
8407;SDS011;4241;48.452;9.216;2022-10-31T00:31:58;449.73;;;145.97;;
8407;SDS011;4241;48.452;9.216;2022-10-31T00:34:25;454.63;;;150.37;;
8407;SDS011;4241;48.452;9.216;2022-10-31T00:36:51;453.53;;;147.60;;
8407;SDS011;4241;48.452;9.216;2022-10-31T00:39:18;454.00;;;148.43;;
8407;SDS011;4241;48.452;9.216;2022-10-31T00:41:45;452.27;;;147.20;;
8407;SDS011;4241;48.452;9.216;2022-10-31T00:44:12;453.57;;;147.80;;
8407;SDS011;4241;48.452;9.216;2022-10-31T00:46:40;453.77;;;147.60;;
8407;SDS011;4241;48.452;9.216;2022-10-31T00:49:06;453.30;;;147.10;;
8407;SDS011;4241;48.452;9.216;2022-10-31T00:51:33;453.50;;;148.30;;
8407;SDS011;4241;48.452;9.216;2022-10-31T00:54:00;453.70;;;148.93;;
8407;SDS011;4241;48.452;9.216;2022-10-31T00:56:27;454.33;;;149.40;;
8407;SDS011;4241;48.452;9.216;2022-10-31T00:58:53;453.50;;;149.07;;
8407;SDS011;4241;48.452;9.216;2022-10-31T01:01:20;453.17;;;146.33;;
8407;SDS011;4241;48.452;9.216;2022-10-31T01:03:48;456.33;;;151.67;;
8407;SDS011;4241;48.452;9.216;2022-10-31T01:06:15;454.43;;;148.17;;
8407;SDS011;4241;48.452;9.216;2022-10-31T01:08:42;454.40;;;149.23;;
8407;SDS011;4241;48.452;9.216;2022-10-31T01:11:10;454.57;;;150.87;;
8407;SDS011;4241;48.452;9.216;2022-10-31T01:13:38;454.97;;;150.13;;
8407;SDS011;4241;48.452;9.216;2022-10-31T01:16:06;456.20;;;152.03;;
8407;SDS011;4241;48.452;9.216;2022-10-31T01:18:34;452.47;;;148.27;;
8407;SDS011;4241;48.452;9.216;2022-10-31T01:21:03;452.93;;;147.90;;
8407;SDS011;4241;48.452;9.216;2022-10-31T01:23:31;455.50;;;151.57;;
8407;SDS011;4241;48.452;9.216;2022-10-31T01:25:59;457.37;;;152.37;;
8407;SDS011;4241;48.452;9.216;2022-10-31T01:28:28;454.47;;;150.13;;
8407;SDS011;4241;48.452;9.216;2022-10-31T01:30:54;454.93;;;150.67;;
8407;SDS011;4241;48.452;9.216;2022-10-31T01:33:21;455.00;;;150.97;;
8407;SDS011;4241;48.452;9.216;2022-10-31T01:35:48;455.03;;;150.57;;
8407;SDS011;4241;48.452;9.216;2022-10-31T01:38:16;453.20;;;148.23;;
8407;SDS011;4241;48.452;9.216;2022-10-31T01:40:43;453.80;;;149.17;;
8407;SDS011;4241;48.452;9.216;2022-10-31T01:43:11;455.40;;;149.67;;
8407;SDS011;4241;48.452;9.216;2022-10-31T01:45:39;453.03;;;148.07;;
8407;SDS011;4241;48.452;9.216;2022-10-31T01:48:09;454.23;;;149.17;;
8407;SDS011;4241;48.452;9.216;2022-10-31T01:50:39;453.00;;;147.00;;
8407;SDS011;4241;48.452;9.216;2022-10-31T01:53:07;451.87;;;146.60;;
8407;SDS011;4241;48.452;9.216;2022-10-31T01:55:38;452.23;;;146.07;;
8407;SDS011;4241;48.452;9.216;2022-10-31T01:58:08;451.27;;;146.70;;
8407;SDS011;4241;48.452;9.216;2022-10-31T02:00:38;454.37;;;147.83;;
8407;SDS011;4241;48.452;9.216;2022-10-31T02:03:07;452.97;;;147.00;;
8407;SDS011;4241;48.452;9.216;2022-10-31T02:05:34;452.43;;;147.33;;
8407;SDS011;4241;48.452;9.216;2022-10-31T02:08:02;453.83;;;147.67;;
8407;SDS011;4241;48.452;9.216;2022-10-31T02:10:33;456.10;;;149.63;;
8407;SDS011;4241;48.452;9.216;2022-10-31T02:13:04;452.20;;;146.57;;
8407;SDS011;4241;48.452;9.216;2022-10-31T02:15:33;450.40;;;144.73;;
8407;SDS011;4241;48.452;9.216;2022-10-31T02:18:02;453.20;;;147.63;;
8407;SDS011;4241;48.452;9.216;2022-10-31T02:20:31;451.40;;;145.37;;
8407;SDS011;4241;48.452;9.216;2022-10-31T02:23:18;450.90;;;146.10;;
8407;SDS011;4241;48.452;9.216;2022-10-31T02:26:04;452.03;;;145.40;;
8407;SDS011;4241;48.452;9.216;2022-10-31T02:28:49;452.43;;;146.97;;
8407;SDS011;4241;48.452;9.216;2022-10-31T02:31:31;451.87;;;146.33;;
8407;SDS011;4241;48.452;9.216;2022-10-31T02:34:06;450.97;;;144.03;;
8407;SDS011;4241;48.452;9.216;2022-10-31T02:36:42;448.97;;;142.20;;
8407;SDS011;4241;48.452;9.216;2022-10-31T02:39:13;451.27;;;144.20;;
8407;SDS011;4241;48.452;9.216;2022-10-31T02:41:48;450.73;;;144.30;;
8407;SDS011;4241;48.452;9.216;2022-10-31T02:44:21;451.23;;;144.17;;
8407;SDS011;4241;48.452;9.216;2022-10-31T02:46:56;449.30;;;141.80;;
8407;SDS011;4241;48.452;9.216;2022-10-31T02:49:27;450.53;;;143.67;;
8407;SDS011;4241;48.452;9.216;2022-10-31T02:51:58;450.87;;;143.00;;
8407;SDS011;4241;48.452;9.216;2022-10-31T02:54:26;449.90;;;141.77;;
8407;SDS011;4241;48.452;9.216;2022-10-31T02:56:55;450.93;;;143.40;;
8407;SDS011;4241;48.452;9.216;2022-10-31T02:59:26;450.83;;;144.17;;
8407;SDS011;4241;48.452;9.216;2022-10-31T03:02:03;448.50;;;141.43;;
8407;SDS011;4241;48.452;9.216;2022-10-31T03:04:44;447.97;;;140.93;;
8407;SDS011;4241;48.452;9.216;2022-10-31T03:07:19;449.53;;;142.60;;
8407;SDS011;4241;48.452;9.216;2022-10-31T03:09:53;457.13;;;149.53;;
8407;SDS011;4241;48.452;9.216;2022-10-31T03:12:27;449.80;;;142.13;;
8407;SDS011;4241;48.452;9.216;2022-10-31T03:15:00;449.13;;;141.10;;
8407;SDS011;4241;48.452;9.216;2022-10-31T03:17:41;447.33;;;139.07;;
8407;SDS011;4241;48.452;9.216;2022-10-31T03:20:15;450.10;;;142.57;;
8407;SDS011;4241;48.452;9.216;2022-10-31T03:22:46;445.73;;;138.03;;
8407;SDS011;4241;48.452;9.216;2022-10-31T03:25:13;446.97;;;138.90;;
8407;SDS011;4241;48.452;9.216;2022-10-31T03:27:41;447.63;;;140.57;;
8407;SDS011;4241;48.452;9.216;2022-10-31T03:30:10;447.23;;;139.53;;
8407;SDS011;4241;48.452;9.216;2022-10-31T03:32:39;448.50;;;140.47;;
8407;SDS011;4241;48.452;9.216;2022-10-31T03:35:10;447.77;;;140.10;;
8407;SDS011;4241;48.452;9.216;2022-10-31T03:37:41;445.67;;;137.87;;
8407;SDS011;4241;48.452;9.216;2022-10-31T03:40:09;450.90;;;143.00;;
8407;SDS011;4241;48.452;9.216;2022-10-31T03:42:39;446.93;;;139.83;;
8407;SDS011;4241;48.452;9.216;2022-10-31T03:45:09;448.00;;;140.10;;
8407;SDS011;4241;48.452;9.216;2022-10-31T03:47:40;445.40;;;138.10;;
8407;SDS011;4241;48.452;9.216;2022-10-31T03:50:09;447.60;;;139.27;;
8407;SDS011;4241;48.452;9.216;2022-10-31T03:52:40;446.30;;;137.83;;
8407;SDS011;4241;48.452;9.216;2022-10-31T03:55:13;446.00;;;137.70;;
8407;SDS011;4241;48.452;9.216;2022-10-31T03:57:44;445.73;;;137.50;;
8407;SDS011;4241;48.452;9.216;2022-10-31T04:00:17;449.77;;;141.27;;
8407;SDS011;4241;48.452;9.216;2022-10-31T04:02:47;446.07;;;137.57;;
8407;SDS011;4241;48.452;9.216;2022-10-31T04:05:20;445.70;;;137.50;;
8407;SDS011;4241;48.452;9.216;2022-10-31T04:07:49;445.80;;;137.43;;
8407;SDS011;4241;48.452;9.216;2022-10-31T04:10:20;450.13;;;142.40;;
8407;SDS011;4241;48.452;9.216;2022-10-31T04:12:50;444.23;;;136.00;;
8407;SDS011;4241;48.452;9.216;2022-10-31T04:15:22;445.37;;;138.23;;
8407;SDS011;4241;48.452;9.216;2022-10-31T04:17:52;446.63;;;138.03;;
8407;SDS011;4241;48.452;9.216;2022-10-31T04:20:29;451.80;;;142.83;;
8407;SDS011;4241;48.452;9.216;2022-10-31T04:22:56;444.13;;;136.40;;
8407;SDS011;4241;48.452;9.216;2022-10-31T04:25:23;447.50;;;139.17;;
8407;SDS011;4241;48.452;9.216;2022-10-31T04:27:49;444.43;;;137.30;;
8407;SDS011;4241;48.452;9.216;2022-10-31T04:30:16;447.07;;;139.77;;
8407;SDS011;4241;48.452;9.216;2022-10-31T04:32:43;442.27;;;134.87;;
8407;SDS011;4241;48.452;9.216;2022-10-31T04:35:11;443.73;;;135.50;;
8407;SDS011;4241;48.452;9.216;2022-10-31T04:37:38;443.03;;;135.07;;
8407;SDS011;4241;48.452;9.216;2022-10-31T04:40:05;445.63;;;137.27;;
8407;SDS011;4241;48.452;9.216;2022-10-31T04:42:32;448.10;;;139.30;;
8407;SDS011;4241;48.452;9.216;2022-10-31T04:44:59;442.27;;;136.93;;
8407;SDS011;4241;48.452;9.216;2022-10-31T04:47:26;444.40;;;141.57;;
8407;SDS011;4241;48.452;9.216;2022-10-31T04:49:53;445.10;;;138.97;;
8407;SDS011;4241;48.452;9.216;2022-10-31T04:52:21;441.73;;;136.47;;
8407;SDS011;4241;48.452;9.216;2022-10-31T04:54:47;442.23;;;140.70;;
8407;SDS011;4241;48.452;9.216;2022-10-31T04:57:14;445.97;;;139.83;;
8407;SDS011;4241;48.452;9.216;2022-10-31T04:59:41;442.10;;;135.53;;
8407;SDS011;4241;48.452;9.216;2022-10-31T05:02:08;442.57;;;135.70;;
8407;SDS011;4241;48.452;9.216;2022-10-31T05:04:34;444.63;;;136.77;;
8407;SDS011;4241;48.452;9.216;2022-10-31T05:07:01;442.83;;;135.40;;
8407;SDS011;4241;48.452;9.216;2022-10-31T05:09:29;446.17;;;139.10;;
8407;SDS011;4241;48.452;9.216;2022-10-31T05:11:56;443.07;;;134.57;;
8407;SDS011;4241;48.452;9.216;2022-10-31T05:14:23;443.73;;;135.43;;
8407;SDS011;4241;48.452;9.216;2022-10-31T05:16:50;442.57;;;135.37;;
8407;SDS011;4241;48.452;9.216;2022-10-31T05:19:16;442.47;;;134.27;;
8407;SDS011;4241;48.452;9.216;2022-10-31T05:21:43;442.40;;;134.87;;
8407;SDS011;4241;48.452;9.216;2022-10-31T05:24:10;442.13;;;135.80;;
8407;SDS011;4241;48.452;9.216;2022-10-31T05:26:38;440.80;;;133.33;;
8407;SDS011;4241;48.452;9.216;2022-10-31T05:29:05;443.90;;;136.10;;
8407;SDS011;4241;48.452;9.216;2022-10-31T05:31:32;444.43;;;136.60;;
8407;SDS011;4241;48.452;9.216;2022-10-31T05:33:58;443.47;;;135.97;;
8407;SDS011;4241;48.452;9.216;2022-10-31T05:36:25;444.57;;;137.27;;
8407;SDS011;4241;48.452;9.216;2022-10-31T05:38:52;444.30;;;136.53;;
8407;SDS011;4241;48.452;9.216;2022-10-31T05:41:19;443.23;;;136.40;;
8407;SDS011;4241;48.452;9.216;2022-10-31T05:43:47;445.20;;;157.77;;
8407;SDS011;4241;48.452;9.216;2022-10-31T05:46:13;435.40;;;136.57;;
8407;SDS011;4241;48.452;9.216;2022-10-31T05:48:40;433.47;;;136.37;;
8407;SDS011;4241;48.452;9.216;2022-10-31T05:51:07;431.93;;;136.10;;
8407;SDS011;4241;48.452;9.216;2022-10-31T05:53:34;432.13;;;135.50;;
8407;SDS011;4241;48.452;9.216;2022-10-31T05:56:00;434.80;;;138.87;;
8407;SDS011;4241;48.452;9.216;2022-10-31T05:58:27;432.90;;;137.30;;
8407;SDS011;4241;48.452;9.216;2022-10-31T06:00:55;432.43;;;135.37;;
8407;SDS011;4241;48.452;9.216;2022-10-31T06:03:22;435.40;;;136.40;;
8407;SDS011;4241;48.452;9.216;2022-10-31T06:05:49;437.30;;;137.27;;
8407;SDS011;4241;48.452;9.216;2022-10-31T06:08:16;437.17;;;134.73;;
8407;SDS011;4241;48.452;9.216;2022-10-31T06:10:42;438.63;;;136.47;;
8407;SDS011;4241;48.452;9.216;2022-10-31T06:13:09;438.27;;;135.00;;
8407;SDS011;4241;48.452;9.216;2022-10-31T06:15:36;438.17;;;134.70;;
8407;SDS011;4241;48.452;9.216;2022-10-31T06:18:04;441.23;;;136.50;;
8407;SDS011;4241;48.452;9.216;2022-10-31T06:20:32;442.57;;;139.17;;
8407;SDS011;4241;48.452;9.216;2022-10-31T06:22:59;438.93;;;136.33;;
8407;SDS011;4241;48.452;9.216;2022-10-31T06:25:27;439.13;;;136.60;;
8407;SDS011;4241;48.452;9.216;2022-10-31T06:27:53;437.90;;;135.83;;
8407;SDS011;4241;48.452;9.216;2022-10-31T06:30:20;446.20;;;142.90;;
8407;SDS011;4241;48.452;9.216;2022-10-31T06:32:48;438.97;;;136.83;;
8407;SDS011;4241;48.452;9.216;2022-10-31T06:35:16;440.23;;;136.50;;
8407;SDS011;4241;48.452;9.216;2022-10-31T06:37:50;439.05;;;136.15;;
8407;SDS011;4241;48.452;9.216;2022-10-31T06:40:17;441.97;;;138.77;;
8407;SDS011;4241;48.452;9.216;2022-10-31T06:42:44;438.70;;;135.20;;
8407;SDS011;4241;48.452;9.216;2022-10-31T06:45:10;437.17;;;134.07;;
8407;SDS011;4241;48.452;9.216;2022-10-31T06:47:37;444.00;;;139.67;;
8407;SDS011;4241;48.452;9.216;2022-10-31T06:50:05;441.63;;;138.43;;
8407;SDS011;4241;48.452;9.216;2022-10-31T06:52:33;442.43;;;139.10;;
8407;SDS011;4241;48.452;9.216;2022-10-31T06:55:00;442.60;;;138.33;;
8407;SDS011;4241;48.452;9.216;2022-10-31T06:57:27;442.67;;;136.67;;
8407;SDS011;4241;48.452;9.216;2022-10-31T06:59:54;443.53;;;138.73;;
8407;SDS011;4241;48.452;9.216;2022-10-31T07:02:20;442.63;;;137.97;;
8407;SDS011;4241;48.452;9.216;2022-10-31T07:04:47;445.67;;;139.43;;
8407;SDS011;4241;48.452;9.216;2022-10-31T07:07:14;443.93;;;137.87;;
8407;SDS011;4241;48.452;9.216;2022-10-31T07:09:42;445.27;;;140.30;;
8407;SDS011;4241;48.452;9.216;2022-10-31T07:12:09;444.67;;;138.67;;
8407;SDS011;4241;48.452;9.216;2022-10-31T07:14:36;446.93;;;140.83;;
8407;SDS011;4241;48.452;9.216;2022-10-31T07:17:02;445.37;;;139.90;;
8407;SDS011;4241;48.452;9.216;2022-10-31T07:19:29;444.37;;;138.30;;
8407;SDS011;4241;48.452;9.216;2022-10-31T07:21:56;444.23;;;137.93;;
8407;SDS011;4241;48.452;9.216;2022-10-31T07:24:23;444.10;;;138.63;;
8407;SDS011;4241;48.452;9.216;2022-10-31T07:26:51;445.03;;;139.27;;
8407;SDS011;4241;48.452;9.216;2022-10-31T07:29:18;448.30;;;142.60;;
8407;SDS011;4241;48.452;9.216;2022-10-31T07:31:45;446.70;;;140.70;;
8407;SDS011;4241;48.452;9.216;2022-10-31T07:34:12;447.10;;;140.27;;
8407;SDS011;4241;48.452;9.216;2022-10-31T07:36:39;447.33;;;141.17;;
8407;SDS011;4241;48.452;9.216;2022-10-31T07:39:05;449.87;;;143.17;;
8407;SDS011;4241;48.452;9.216;2022-10-31T07:41:32;449.67;;;143.40;;
8407;SDS011;4241;48.452;9.216;2022-10-31T07:44:00;447.83;;;142.90;;
8407;SDS011;4241;48.452;9.216;2022-10-31T07:46:27;449.43;;;142.70;;
8407;SDS011;4241;48.452;9.216;2022-10-31T07:48:54;448.70;;;142.93;;
8407;SDS011;4241;48.452;9.216;2022-10-31T07:51:21;451.00;;;145.50;;
8407;SDS011;4241;48.452;9.216;2022-10-31T07:53:49;450.43;;;146.07;;
8407;SDS011;4241;48.452;9.216;2022-10-31T07:56:15;449.93;;;143.63;;
8407;SDS011;4241;48.452;9.216;2022-10-31T07:58:42;451.20;;;145.53;;
8407;SDS011;4241;48.452;9.216;2022-10-31T08:01:10;451.40;;;145.37;;
8407;SDS011;4241;48.452;9.216;2022-10-31T08:03:37;451.87;;;146.00;;
8407;SDS011;4241;48.452;9.216;2022-10-31T08:06:04;458.53;;;152.33;;
8407;SDS011;4241;48.452;9.216;2022-10-31T08:08:31;452.80;;;146.70;;
8407;SDS011;4241;48.452;9.216;2022-10-31T08:10:58;452.70;;;145.43;;
8407;SDS011;4241;48.452;9.216;2022-10-31T08:13:25;458.20;;;151.63;;
8407;SDS011;4241;48.452;9.216;2022-10-31T08:15:52;456.00;;;151.40;;
8407;SDS011;4241;48.452;9.216;2022-10-31T08:18:20;453.20;;;148.57;;
8407;SDS011;4241;48.452;9.216;2022-10-31T08:20:48;458.27;;;153.23;;
8407;SDS011;4241;48.452;9.216;2022-10-31T08:23:15;456.50;;;152.17;;
8407;SDS011;4241;48.452;9.216;2022-10-31T08:25:42;455.93;;;151.07;;
8407;SDS011;4241;48.452;9.216;2022-10-31T08:28:11;460.80;;;157.77;;
8407;SDS011;4241;48.452;9.216;2022-10-31T08:30:39;458.87;;;154.13;;
8407;SDS011;4241;48.452;9.216;2022-10-31T08:33:08;457.17;;;154.33;;
8407;SDS011;4241;48.452;9.216;2022-10-31T08:35:38;460.37;;;158.93;;
8407;SDS011;4241;48.452;9.216;2022-10-31T08:38:05;459.33;;;155.77;;
8407;SDS011;4241;48.452;9.216;2022-10-31T08:40:32;462.33;;;159.30;;
8407;SDS011;4241;48.452;9.216;2022-10-31T08:43:01;463.00;;;162.63;;
8407;SDS011;4241;48.452;9.216;2022-10-31T08:45:29;459.77;;;157.60;;
8407;SDS011;4241;48.452;9.216;2022-10-31T08:47:58;458.40;;;157.03;;
8407;SDS011;4241;48.452;9.216;2022-10-31T08:50:25;470.47;;;168.67;;
8407;SDS011;4241;48.452;9.216;2022-10-31T08:52:58;460.17;;;159.80;;
8407;SDS011;4241;48.452;9.216;2022-10-31T08:55:28;485.00;;;187.30;;
8407;SDS011;4241;48.452;9.216;2022-10-31T08:57:55;462.20;;;160.80;;
8407;SDS011;4241;48.452;9.216;2022-10-31T09:00:23;467.83;;;167.10;;
8407;SDS011;4241;48.452;9.216;2022-10-31T09:02:54;460.77;;;159.70;;
8407;SDS011;4241;48.452;9.216;2022-10-31T09:05:22;462.43;;;166.93;;
8407;SDS011;4241;48.452;9.216;2022-10-31T09:07:49;461.43;;;162.03;;
8407;SDS011;4241;48.452;9.216;2022-10-31T09:10:18;463.60;;;168.40;;
8407;SDS011;4241;48.452;9.216;2022-10-31T09:12:44;462.53;;;166.70;;
8407;SDS011;4241;48.452;9.216;2022-10-31T09:15:11;460.77;;;163.83;;
8407;SDS011;4241;48.452;9.216;2022-10-31T09:17:38;466.10;;;168.67;;
8407;SDS011;4241;48.452;9.216;2022-10-31T09:20:05;464.97;;;166.67;;
8407;SDS011;4241;48.452;9.216;2022-10-31T09:22:32;470.10;;;174.07;;
8407;SDS011;4241;48.452;9.216;2022-10-31T09:24:59;462.63;;;165.23;;
8407;SDS011;4241;48.452;9.216;2022-10-31T09:27:27;468.30;;;171.10;;
8407;SDS011;4241;48.452;9.216;2022-10-31T09:29:54;465.23;;;166.57;;
8407;SDS011;4241;48.452;9.216;2022-10-31T09:32:20;462.70;;;165.67;;
8407;SDS011;4241;48.452;9.216;2022-10-31T09:34:47;466.00;;;174.30;;
8407;SDS011;4241;48.452;9.216;2022-10-31T09:37:14;464.83;;;169.00;;
8407;SDS011;4241;48.452;9.216;2022-10-31T09:39:41;466.33;;;170.57;;
8407;SDS011;4241;48.452;9.216;2022-10-31T09:42:18;468.30;;;175.43;;
8407;SDS011;4241;48.452;9.216;2022-10-31T09:45:16;466.47;;;171.00;;
8407;SDS011;4241;48.452;9.216;2022-10-31T09:47:52;465.77;;;172.60;;
8407;SDS011;4241;48.452;9.216;2022-10-31T09:50:30;470.80;;;177.47;;
8407;SDS011;4241;48.452;9.216;2022-10-31T09:53:05;467.70;;;176.20;;
8407;SDS011;4241;48.452;9.216;2022-10-31T09:55:37;467.83;;;176.07;;
8407;SDS011;4241;48.452;9.216;2022-10-31T09:58:07;467.70;;;177.50;;
8407;SDS011;4241;48.452;9.216;2022-10-31T10:00:41;467.13;;;177.57;;
8407;SDS011;4241;48.452;9.216;2022-10-31T10:03:10;470.47;;;183.73;;
8407;SDS011;4241;48.452;9.216;2022-10-31T10:05:54;472.80;;;186.53;;
8407;SDS011;4241;48.452;9.216;2022-10-31T10:08:31;469.97;;;183.23;;
8407;SDS011;4241;48.452;9.216;2022-10-31T10:11:01;470.30;;;184.43;;
8407;SDS011;4241;48.452;9.216;2022-10-31T10:13:42;467.50;;;180.93;;
8407;SDS011;4241;48.452;9.216;2022-10-31T10:16:23;472.57;;;190.67;;
8407;SDS011;4241;48.452;9.216;2022-10-31T10:19:04;478.13;;;198.70;;
8407;SDS011;4241;48.452;9.216;2022-10-31T10:21:41;472.20;;;190.17;;
8407;SDS011;4241;48.452;9.216;2022-10-31T10:24:17;472.57;;;191.30;;
8407;SDS011;4241;48.452;9.216;2022-10-31T10:26:54;474.00;;;193.57;;
8407;SDS011;4241;48.452;9.216;2022-10-31T10:29:31;473.73;;;193.23;;
8407;SDS011;4241;48.452;9.216;2022-10-31T10:32:05;474.70;;;197.60;;
8407;SDS011;4241;48.452;9.216;2022-10-31T10:34:39;475.47;;;198.03;;
8407;SDS011;4241;48.452;9.216;2022-10-31T10:37:13;474.43;;;196.87;;
8407;SDS011;4241;48.452;9.216;2022-10-31T10:39:49;478.83;;;203.07;;
8407;SDS011;4241;48.452;9.216;2022-10-31T10:42:19;474.07;;;196.03;;
8407;SDS011;4241;48.452;9.216;2022-10-31T10:45:09;477.10;;;201.97;;
8407;SDS011;4241;48.452;9.216;2022-10-31T10:48:04;475.60;;;199.20;;
8407;SDS011;4241;48.452;9.216;2022-10-31T10:50:38;477.80;;;206.10;;
8407;SDS011;4241;48.452;9.216;2022-10-31T10:53:11;477.03;;;205.20;;
8407;SDS011;4241;48.452;9.216;2022-10-31T10:55:57;479.63;;;213.27;;
8407;SDS011;4241;48.452;9.216;2022-10-31T10:58:28;479.50;;;214.07;;
8407;SDS011;4241;48.452;9.216;2022-10-31T11:00:55;480.33;;;216.80;;
8407;SDS011;4241;48.452;9.216;2022-10-31T11:03:23;481.63;;;219.33;;
8407;SDS011;4241;48.452;9.216;2022-10-31T11:05:51;483.30;;;222.63;;
8407;SDS011;4241;48.452;9.216;2022-10-31T11:08:25;480.93;;;221.13;;
8407;SDS011;4241;48.452;9.216;2022-10-31T11:10:56;484.37;;;225.57;;
8407;SDS011;4241;48.452;9.216;2022-10-31T11:13:24;483.80;;;228.83;;
8407;SDS011;4241;48.452;9.216;2022-10-31T11:15:56;483.10;;;224.73;;
8407;SDS011;4241;48.452;9.216;2022-10-31T11:18:27;486.70;;;229.40;;
8407;SDS011;4241;48.452;9.216;2022-10-31T11:20:56;481.50;;;225.83;;
8407;SDS011;4241;48.452;9.216;2022-10-31T11:23:24;481.67;;;224.87;;
8407;SDS011;4241;48.452;9.216;2022-10-31T11:25:53;486.13;;;229.83;;
8407;SDS011;4241;48.452;9.216;2022-10-31T11:28:22;481.90;;;225.47;;
8407;SDS011;4241;48.452;9.216;2022-10-31T11:30:50;481.53;;;226.03;;
8407;SDS011;4241;48.452;9.216;2022-10-31T11:33:19;486.17;;;232.47;;
8407;SDS011;4241;48.452;9.216;2022-10-31T11:35:50;482.67;;;226.77;;
8407;SDS011;4241;48.452;9.216;2022-10-31T11:38:20;482.33;;;227.90;;
8407;SDS011;4241;48.452;9.216;2022-10-31T11:40:52;484.73;;;232.53;;
8407;SDS011;4241;48.452;9.216;2022-10-31T11:43:21;484.27;;;230.57;;
8407;SDS011;4241;48.452;9.216;2022-10-31T11:45:48;482.83;;;230.43;;
8407;SDS011;4241;48.452;9.216;2022-10-31T11:48:16;481.77;;;228.10;;
8407;SDS011;4241;48.452;9.216;2022-10-31T11:50:47;483.10;;;229.03;;
8407;SDS011;4241;48.452;9.216;2022-10-31T11:53:18;481.50;;;226.70;;
8407;SDS011;4241;48.452;9.216;2022-10-31T11:55:50;482.03;;;228.27;;
8407;SDS011;4241;48.452;9.216;2022-10-31T11:58:30;482.87;;;227.77;;
8407;SDS011;4241;48.452;9.216;2022-10-31T12:00:57;485.10;;;230.77;;
8407;SDS011;4241;48.452;9.216;2022-10-31T12:03:27;486.57;;;232.80;;
8407;SDS011;4241;48.452;9.216;2022-10-31T12:06:07;483.20;;;227.83;;
8407;SDS011;4241;48.452;9.216;2022-10-31T12:08:38;481.37;;;223.80;;
8407;SDS011;4241;48.452;9.216;2022-10-31T12:11:09;483.30;;;224.70;;
8407;SDS011;4241;48.452;9.216;2022-10-31T12:13:47;481.33;;;222.70;;
8407;SDS011;4241;48.452;9.216;2022-10-31T12:16:17;479.93;;;221.30;;
8407;SDS011;4241;48.452;9.216;2022-10-31T12:18:53;479.83;;;219.90;;
8407;SDS011;4241;48.452;9.216;2022-10-31T12:21:27;481.23;;;221.73;;
8407;SDS011;4241;48.452;9.216;2022-10-31T12:24:02;480.50;;;221.23;;
8407;SDS011;4241;48.452;9.216;2022-10-31T12:26:33;479.67;;;219.50;;
8407;SDS011;4241;48.452;9.216;2022-10-31T12:29:10;480.10;;;221.03;;
8407;SDS011;4241;48.452;9.216;2022-10-31T12:31:44;480.30;;;221.63;;
8407;SDS011;4241;48.452;9.216;2022-10-31T12:37:07;481.50;;;218.57;;
8407;SDS011;4241;48.452;9.216;2022-10-31T12:39:39;483.17;;;219.90;;
8407;SDS011;4241;48.452;9.216;2022-10-31T12:42:09;478.23;;;215.23;;
8407;SDS011;4241;48.452;9.216;2022-10-31T12:44:45;477.67;;;212.20;;
8407;SDS011;4241;48.452;9.216;2022-10-31T12:47:21;479.80;;;214.07;;
8407;SDS011;4241;48.452;9.216;2022-10-31T12:49:53;479.90;;;215.37;;
8407;SDS011;4241;48.452;9.216;2022-10-31T12:52:33;482.00;;;218.37;;
8407;SDS011;4241;48.452;9.216;2022-10-31T12:55:08;478.80;;;212.87;;
8407;SDS011;4241;48.452;9.216;2022-10-31T12:57:38;477.97;;;212.60;;
8407;SDS011;4241;48.452;9.216;2022-10-31T13:00:10;480.67;;;214.67;;
8407;SDS011;4241;48.452;9.216;2022-10-31T13:02:40;481.17;;;213.70;;
8407;SDS011;4241;48.452;9.216;2022-10-31T13:05:12;477.20;;;212.43;;
8407;SDS011;4241;48.452;9.216;2022-10-31T13:07:43;495.57;;;226.93;;
8407;SDS011;4241;48.452;9.216;2022-10-31T13:10:15;480.57;;;212.60;;
8407;SDS011;4241;48.452;9.216;2022-10-31T13:12:43;478.97;;;212.30;;
8407;SDS011;4241;48.452;9.216;2022-10-31T13:15:12;477.47;;;210.40;;
8407;SDS011;4241;48.452;9.216;2022-10-31T13:17:42;479.57;;;214.17;;
8407;SDS011;4241;48.452;9.216;2022-10-31T13:20:19;479.30;;;213.23;;
8407;SDS011;4241;48.452;9.216;2022-10-31T13:22:49;477.57;;;212.83;;
8407;SDS011;4241;48.452;9.216;2022-10-31T13:25:19;478.27;;;212.93;;
8407;SDS011;4241;48.452;9.216;2022-10-31T13:27:48;476.57;;;208.00;;
8407;SDS011;4241;48.452;9.216;2022-10-31T13:30:18;481.10;;;215.60;;
8407;SDS011;4241;48.452;9.216;2022-10-31T13:32:47;476.27;;;208.97;;
8407;SDS011;4241;48.452;9.216;2022-10-31T13:35:20;476.87;;;209.90;;
8407;SDS011;4241;48.452;9.216;2022-10-31T13:37:50;479.50;;;215.20;;
8407;SDS011;4241;48.452;9.216;2022-10-31T13:40:22;482.07;;;216.20;;
8407;SDS011;4241;48.452;9.216;2022-10-31T13:42:55;476.60;;;211.07;;
8407;SDS011;4241;48.452;9.216;2022-10-31T13:45:24;479.90;;;212.00;;
8407;SDS011;4241;48.452;9.216;2022-10-31T13:47:55;478.27;;;213.60;;
8407;SDS011;4241;48.452;9.216;2022-10-31T13:50:24;486.47;;;224.03;;
8407;SDS011;4241;48.452;9.216;2022-10-31T13:52:53;478.17;;;214.63;;
8407;SDS011;4241;48.452;9.216;2022-10-31T13:55:36;477.47;;;212.10;;
8407;SDS011;4241;48.452;9.216;2022-10-31T13:58:04;479.00;;;213.93;;
8407;SDS011;4241;48.452;9.216;2022-10-31T14:00:32;481.47;;;216.23;;
8407;SDS011;4241;48.452;9.216;2022-10-31T14:03:01;477.80;;;213.27;;
8407;SDS011;4241;48.452;9.216;2022-10-31T14:05:29;477.87;;;212.63;;
8407;SDS011;4241;48.452;9.216;2022-10-31T14:07:59;480.87;;;215.03;;
8407;SDS011;4241;48.452;9.216;2022-10-31T14:10:28;485.63;;;221.30;;
8407;SDS011;4241;48.452;9.216;2022-10-31T14:13:02;478.07;;;213.13;;
8407;SDS011;4241;48.452;9.216;2022-10-31T14:15:30;478.40;;;212.63;;
8407;SDS011;4241;48.452;9.216;2022-10-31T14:17:58;477.23;;;211.60;;
8407;SDS011;4241;48.452;9.216;2022-10-31T14:20:38;483.77;;;217.90;;
8407;SDS011;4241;48.452;9.216;2022-10-31T14:23:25;477.27;;;209.30;;
8407;SDS011;4241;48.452;9.216;2022-10-31T14:28:44;476.27;;;205.80;;
8407;SDS011;4241;48.452;9.216;2022-10-31T14:31:30;477.77;;;206.57;;
8407;SDS011;4241;48.452;9.216;2022-10-31T14:34:02;479.33;;;206.53;;
8407;SDS011;4241;48.452;9.216;2022-10-31T14:36:36;477.23;;;206.47;;
8407;SDS011;4241;48.452;9.216;2022-10-31T14:39:10;476.50;;;203.60;;
8407;SDS011;4241;48.452;9.216;2022-10-31T14:41:45;476.07;;;202.10;;